sensor_id;sensor_type;location;lat;lon;timestamp;temperature;humidity
18297;DHT22;18066;52.106;5.534;2022-11-15T00:02:20;8.40;99.90
18297;DHT22;18066;52.106;5.534;2022-11-15T00:04:47;8.40;99.90
18297;DHT22;18066;52.106;5.534;2022-11-15T00:07:13;8.40;99.90
18297;DHT22;18066;52.106;5.534;2022-11-15T00:09:41;8.40;99.90
18297;DHT22;18066;52.106;5.534;2022-11-15T00:12:08;8.40;99.90
18297;DHT22;18066;52.106;5.534;2022-11-15T00:14:35;8.40;99.90
18297;DHT22;18066;52.106;5.534;2022-11-15T00:17:02;8.40;99.90
18297;DHT22;18066;52.106;5.534;2022-11-15T00:19:28;8.40;99.90
18297;DHT22;18066;52.106;5.534;2022-11-15T00:21:55;8.50;99.90
18297;DHT22;18066;52.106;5.534;2022-11-15T00:24:22;8.50;99.90
18297;DHT22;18066;52.106;5.534;2022-11-15T00:26:50;8.50;99.90
18297;DHT22;18066;52.106;5.534;2022-11-15T00:29:16;8.60;99.90
18297;DHT22;18066;52.106;5.534;2022-11-15T00:31:43;8.60;99.90
18297;DHT22;18066;52.106;5.534;2022-11-15T00:34:10;8.60;99.90
18297;DHT22;18066;52.106;5.534;2022-11-15T00:36:37;8.60;99.90
18297;DHT22;18066;52.106;5.534;2022-11-15T00:39:04;8.60;99.90
18297;DHT22;18066;52.106;5.534;2022-11-15T00:41:31;8.60;99.90
18297;DHT22;18066;52.106;5.534;2022-11-15T00:43:59;8.60;99.90
18297;DHT22;18066;52.106;5.534;2022-11-15T00:46:26;8.60;99.90
18297;DHT22;18066;52.106;5.534;2022-11-15T00:48:52;8.70;99.90
18297;DHT22;18066;52.106;5.534;2022-11-15T00:51:19;8.70;99.90
18297;DHT22;18066;52.106;5.534;2022-11-15T00:53:46;8.80;99.90
18297;DHT22;18066;52.106;5.534;2022-11-15T00:56:13;8.80;99.90
18297;DHT22;18066;52.106;5.534;2022-11-15T00:58:39;8.80;99.90
18297;DHT22;18066;52.106;5.534;2022-11-15T01:01:10;8.90;99.90
18297;DHT22;18066;52.106;5.534;2022-11-15T01:03:37;8.90;99.90
18297;DHT22;18066;52.106;5.534;2022-11-15T01:06:05;8.90;99.90
18297;DHT22;18066;52.106;5.534;2022-11-15T01:08:32;8.90;99.90
18297;DHT22;18066;52.106;5.534;2022-11-15T01:11:03;9.00;99.90
18297;DHT22;18066;52.106;5.534;2022-11-15T01:13:30;8.90;99.90
18297;DHT22;18066;52.106;5.534;2022-11-15T01:15:57;9.00;99.90
18297;DHT22;18066;52.106;5.534;2022-11-15T01:18:25;9.00;99.90
18297;DHT22;18066;52.106;5.534;2022-11-15T01:20:52;9.00;99.90
18297;DHT22;18066;52.106;5.534;2022-11-15T01:23:19;8.90;99.90
18297;DHT22;18066;52.106;5.534;2022-11-15T01:25:46;9.00;99.90
18297;DHT22;18066;52.106;5.534;2022-11-15T01:28:12;9.00;99.90
18297;DHT22;18066;52.106;5.534;2022-11-15T01:30:39;9.00;99.90
18297;DHT22;18066;52.106;5.534;2022-11-15T01:33:06;9.00;99.90
18297;DHT22;18066;52.106;5.534;2022-11-15T01:35:38;9.00;99.90
18297;DHT22;18066;52.106;5.534;2022-11-15T01:38:04;9.00;99.90
18297;DHT22;18066;52.106;5.534;2022-11-15T01:40:31;9.00;99.90
18297;DHT22;18066;52.106;5.534;2022-11-15T01:42:58;9.10;99.90
18297;DHT22;18066;52.106;5.534;2022-11-15T01:45:25;9.10;99.90
18297;DHT22;18066;52.106;5.534;2022-11-15T01:47:53;9.20;99.90
18297;DHT22;18066;52.106;5.534;2022-11-15T01:50:23;9.10;99.90
18297;DHT22;18066;52.106;5.534;2022-11-15T01:52:53;9.20;99.90
18297;DHT22;18066;52.106;5.534;2022-11-15T01:55:23;9.10;99.90
18297;DHT22;18066;52.106;5.534;2022-11-15T01:57:53;9.10;99.90
18297;DHT22;18066;52.106;5.534;2022-11-15T02:00:21;9.10;99.90
18297;DHT22;18066;52.106;5.534;2022-11-15T02:02:48;9.10;99.90
18297;DHT22;18066;52.106;5.534;2022-11-15T02:05:15;9.20;99.90
18297;DHT22;18066;52.106;5.534;2022-11-15T02:07:42;9.10;99.90
18297;DHT22;18066;52.106;5.534;2022-11-15T02:10:12;9.20;99.90
18297;DHT22;18066;52.106;5.534;2022-11-15T02:12:41;9.20;99.90
18297;DHT22;18066;52.106;5.534;2022-11-15T02:15:09;9.20;99.90
18297;DHT22;18066;52.106;5.534;2022-11-15T02:17:58;9.20;99.90
18297;DHT22;18066;52.106;5.534;2022-11-15T02:23:58;9.20;99.90
18297;DHT22;18066;52.106;5.534;2022-11-15T02:27:10;9.20;99.90
18297;DHT22;18066;52.106;5.534;2022-11-15T02:29:53;9.30;99.90
18297;DHT22;18066;52.106;5.534;2022-11-15T02:32:31;9.30;99.90
18297;DHT22;18066;52.106;5.534;2022-11-15T02:35:05;9.40;99.90
18297;DHT22;18066;52.106;5.534;2022-11-15T02:37:38;9.40;99.90
18297;DHT22;18066;52.106;5.534;2022-11-15T02:40:10;9.40;99.90
18297;DHT22;18066;52.106;5.534;2022-11-15T02:42:43;9.40;99.90
18297;DHT22;18066;52.106;5.534;2022-11-15T02:45:31;9.40;99.90
18297;DHT22;18066;52.106;5.534;2022-11-15T02:48:01;9.50;99.90
18297;DHT22;18066;52.106;5.534;2022-11-15T02:50:32;9.50;99.90
18297;DHT22;18066;52.106;5.534;2022-11-15T02:52:59;9.50;99.90
18297;DHT22;18066;52.106;5.534;2022-11-15T02:55:27;9.60;99.90
18297;DHT22;18066;52.106;5.534;2022-11-15T02:58:15;9.60;99.90
18297;DHT22;18066;52.106;5.534;2022-11-15T03:00:50;9.70;99.90
18297;DHT22;18066;52.106;5.534;2022-11-15T03:03:40;9.70;99.90
18297;DHT22;18066;52.106;5.534;2022-11-15T03:06:19;9.80;99.90
18297;DHT22;18066;52.106;5.534;2022-11-15T03:08:57;9.80;99.90
18297;DHT22;18066;52.106;5.534;2022-11-15T03:11:25;9.90;99.90
18297;DHT22;18066;52.106;5.534;2022-11-15T03:13:56;9.90;99.90
18297;DHT22;18066;52.106;5.534;2022-11-15T03:16:28;9.90;99.90
18297;DHT22;18066;52.106;5.534;2022-11-15T03:19:01;10.00;99.90
18297;DHT22;18066;52.106;5.534;2022-11-15T03:21:31;10.00;99.90
18297;DHT22;18066;52.106;5.534;2022-11-15T03:24:02;10.00;99.90
18297;DHT22;18066;52.106;5.534;2022-11-15T03:26:30;10.10;99.90
18297;DHT22;18066;52.106;5.534;2022-11-15T03:29:00;10.10;99.90
18297;DHT22;18066;52.106;5.534;2022-11-15T03:31:32;10.10;99.90
18297;DHT22;18066;52.106;5.534;2022-11-15T03:34:19;10.10;99.90
18297;DHT22;18066;52.106;5.534;2022-11-15T03:36:49;10.10;99.90
18297;DHT22;18066;52.106;5.534;2022-11-15T03:39:16;10.20;99.90
18297;DHT22;18066;52.106;5.534;2022-11-15T03:41:47;10.20;99.90
18297;DHT22;18066;52.106;5.534;2022-11-15T03:44:20;10.20;99.90
18297;DHT22;18066;52.106;5.534;2022-11-15T03:46:57;10.20;99.90
18297;DHT22;18066;52.106;5.534;2022-11-15T03:49:29;10.20;99.90
18297;DHT22;18066;52.106;5.534;2022-11-15T03:51:57;10.20;99.90
18297;DHT22;18066;52.106;5.534;2022-11-15T03:54:24;10.20;99.90
18297;DHT22;18066;52.106;5.534;2022-11-15T03:56:51;10.30;99.90
18297;DHT22;18066;52.106;5.534;2022-11-15T03:59:18;10.30;99.90
18297;DHT22;18066;52.106;5.534;2022-11-15T04:01:44;10.30;99.90
18297;DHT22;18066;52.106;5.534;2022-11-15T04:04:11;10.40;99.90
18297;DHT22;18066;52.106;5.534;2022-11-15T04:06:39;10.40;99.90
18297;DHT22;18066;52.106;5.534;2022-11-15T04:09:06;10.40;99.90
18297;DHT22;18066;52.106;5.534;2022-11-15T04:11:33;10.40;99.90
18297;DHT22;18066;52.106;5.534;2022-11-15T04:14:00;10.50;99.90
18297;DHT22;18066;52.106;5.534;2022-11-15T04:16:26;10.50;99.90
18297;DHT22;18066;52.106;5.534;2022-11-15T04:18:53;10.50;99.90
18297;DHT22;18066;52.106;5.534;2022-11-15T04:21:34;10.60;99.90
18297;DHT22;18066;52.106;5.534;2022-11-15T04:24:19;10.60;99.90
18297;DHT22;18066;52.106;5.534;2022-11-15T04:26:46;10.60;99.90
18297;DHT22;18066;52.106;5.534;2022-11-15T04:29:12;10.70;99.90
18297;DHT22;18066;52.106;5.534;2022-11-15T04:31:57;10.70;99.90
18297;DHT22;18066;52.106;5.534;2022-11-15T04:34:23;10.70;99.90
18297;DHT22;18066;52.106;5.534;2022-11-15T04:36:50;10.80;99.90
18297;DHT22;18066;52.106;5.534;2022-11-15T04:39:38;10.80;99.90
18297;DHT22;18066;52.106;5.534;2022-11-15T04:42:04;10.70;99.90
18297;DHT22;18066;52.106;5.534;2022-11-15T04:44:31;10.80;99.90
18297;DHT22;18066;52.106;5.534;2022-11-15T04:46:58;10.80;99.90
18297;DHT22;18066;52.106;5.534;2022-11-15T04:49:25;10.80;99.90
18297;DHT22;18066;52.106;5.534;2022-11-15T04:51:52;10.80;99.90
18297;DHT22;18066;52.106;5.534;2022-11-15T04:54:18;10.80;99.90
18297;DHT22;18066;52.106;5.534;2022-11-15T04:56:47;10.80;99.90
18297;DHT22;18066;52.106;5.534;2022-11-15T04:59:13;10.90;99.90
18297;DHT22;18066;52.106;5.534;2022-11-15T05:01:40;10.90;99.90
18297;DHT22;18066;52.106;5.534;2022-11-15T05:04:07;10.90;99.90
18297;DHT22;18066;52.106;5.534;2022-11-15T05:06:45;10.90;99.90
18297;DHT22;18066;52.106;5.534;2022-11-15T05:09:12;10.90;99.90
18297;DHT22;18066;52.106;5.534;2022-11-15T05:11:39;10.90;99.90
18297;DHT22;18066;52.106;5.534;2022-11-15T05:14:07;10.90;99.90
18297;DHT22;18066;52.106;5.534;2022-11-15T05:16:34;11.00;99.90
18297;DHT22;18066;52.106;5.534;2022-11-15T05:19:01;11.00;99.90
18297;DHT22;18066;52.106;5.534;2022-11-15T05:21:28;11.00;99.90
18297;DHT22;18066;52.106;5.534;2022-11-15T05:23:55;11.00;99.90
18297;DHT22;18066;52.106;5.534;2022-11-15T05:26:22;11.00;99.90
18297;DHT22;18066;52.106;5.534;2022-11-15T05:28:52;11.00;99.90
18297;DHT22;18066;52.106;5.534;2022-11-15T05:31:21;10.90;99.90
18297;DHT22;18066;52.106;5.534;2022-11-15T05:33:49;11.00;99.90
18297;DHT22;18066;52.106;5.534;2022-11-15T05:36:18;11.00;99.90
18297;DHT22;18066;52.106;5.534;2022-11-15T05:38:48;11.00;99.90
18297;DHT22;18066;52.106;5.534;2022-11-15T05:41:16;11.00;99.90
18297;DHT22;18066;52.106;5.534;2022-11-15T05:43:44;11.10;99.90
18297;DHT22;18066;52.106;5.534;2022-11-15T05:46:12;11.10;99.90
18297;DHT22;18066;52.106;5.534;2022-11-15T05:48:43;11.10;99.90
18297;DHT22;18066;52.106;5.534;2022-11-15T05:51:12;11.10;99.90
18297;DHT22;18066;52.106;5.534;2022-11-15T05:53:40;11.10;99.90
18297;DHT22;18066;52.106;5.534;2022-11-15T05:56:09;11.20;99.90
18297;DHT22;18066;52.106;5.534;2022-11-15T05:58:36;11.20;99.90
18297;DHT22;18066;52.106;5.534;2022-11-15T06:01:04;11.20;99.90
18297;DHT22;18066;52.106;5.534;2022-11-15T06:03:31;11.30;99.90
18297;DHT22;18066;52.106;5.534;2022-11-15T06:05:59;11.30;99.90
18297;DHT22;18066;52.106;5.534;2022-11-15T06:08:26;11.20;99.90
18297;DHT22;18066;52.106;5.534;2022-11-15T06:10:53;11.30;99.90
18297;DHT22;18066;52.106;5.534;2022-11-15T06:13:20;11.30;99.90
18297;DHT22;18066;52.106;5.534;2022-11-15T06:15:47;11.30;99.90
18297;DHT22;18066;52.106;5.534;2022-11-15T06:18:14;11.30;99.90
18297;DHT22;18066;52.106;5.534;2022-11-15T06:20:40;11.40;99.90
18297;DHT22;18066;52.106;5.534;2022-11-15T06:23:09;11.40;99.90
18297;DHT22;18066;52.106;5.534;2022-11-15T06:25:35;11.30;99.90
18297;DHT22;18066;52.106;5.534;2022-11-15T06:28:02;11.40;99.90
18297;DHT22;18066;52.106;5.534;2022-11-15T06:30:29;11.40;99.90
18297;DHT22;18066;52.106;5.534;2022-11-15T06:33:00;11.50;99.90
18297;DHT22;18066;52.106;5.534;2022-11-15T06:35:28;11.50;99.90
18297;DHT22;18066;52.106;5.534;2022-11-15T06:37:55;11.50;99.90
18297;DHT22;18066;52.106;5.534;2022-11-15T06:40:23;11.50;99.90
18297;DHT22;18066;52.106;5.534;2022-11-15T06:42:50;11.50;99.90
18297;DHT22;18066;52.106;5.534;2022-11-15T06:45:17;11.50;99.90
18297;DHT22;18066;52.106;5.534;2022-11-15T06:47:46;11.50;99.90
18297;DHT22;18066;52.106;5.534;2022-11-15T06:50:14;11.50;99.90
18297;DHT22;18066;52.106;5.534;2022-11-15T06:52:40;11.50;99.90
18297;DHT22;18066;52.106;5.534;2022-11-15T06:55:08;11.60;99.90
18297;DHT22;18066;52.106;5.534;2022-11-15T06:57:36;11.50;99.90
18297;DHT22;18066;52.106;5.534;2022-11-15T07:00:04;11.60;99.90
18297;DHT22;18066;52.106;5.534;2022-11-15T07:02:31;11.60;99.90
18297;DHT22;18066;52.106;5.534;2022-11-15T07:04:58;11.50;99.90
18297;DHT22;18066;52.106;5.534;2022-11-15T07:07:24;11.60;99.90
18297;DHT22;18066;52.106;5.534;2022-11-15T07:09:51;11.60;99.90
18297;DHT22;18066;52.106;5.534;2022-11-15T07:12:18;11.50;99.90
18297;DHT22;18066;52.106;5.534;2022-11-15T07:14:46;11.60;99.90
18297;DHT22;18066;52.106;5.534;2022-11-15T07:17:13;11.60;99.90
18297;DHT22;18066;52.106;5.534;2022-11-15T07:19:39;11.60;99.90
18297;DHT22;18066;52.106;5.534;2022-11-15T07:22:06;11.60;99.90
18297;DHT22;18066;52.106;5.534;2022-11-15T07:24:33;11.60;99.90
18297;DHT22;18066;52.106;5.534;2022-11-15T07:26:59;11.60;99.90
18297;DHT22;18066;52.106;5.534;2022-11-15T07:29:26;11.60;99.90
18297;DHT22;18066;52.106;5.534;2022-11-15T07:31:54;11.70;99.90
18297;DHT22;18066;52.106;5.534;2022-11-15T07:34:21;11.60;99.90
18297;DHT22;18066;52.106;5.534;2022-11-15T07:36:49;11.60;99.90
18297;DHT22;18066;52.106;5.534;2022-11-15T07:39:15;11.70;99.90
18297;DHT22;18066;52.106;5.534;2022-11-15T07:41:42;11.70;99.90
18297;DHT22;18066;52.106;5.534;2022-11-15T07:44:10;11.70;99.90
18297;DHT22;18066;52.106;5.534;2022-11-15T07:46:37;11.60;99.90
18297;DHT22;18066;52.106;5.534;2022-11-15T07:49:05;11.70;99.90
18297;DHT22;18066;52.106;5.534;2022-11-15T07:51:32;11.70;99.90
18297;DHT22;18066;52.106;5.534;2022-11-15T07:53:59;11.70;99.90
18297;DHT22;18066;52.106;5.534;2022-11-15T07:56:25;11.70;99.90
18297;DHT22;18066;52.106;5.534;2022-11-15T07:58:52;11.70;99.90
18297;DHT22;18066;52.106;5.534;2022-11-15T08:01:19;11.70;99.90
18297;DHT22;18066;52.106;5.534;2022-11-15T08:03:46;11.70;99.90
18297;DHT22;18066;52.106;5.534;2022-11-15T08:06:14;11.70;99.90
18297;DHT22;18066;52.106;5.534;2022-11-15T08:08:40;11.70;99.90
18297;DHT22;18066;52.106;5.534;2022-11-15T08:11:07;11.70;99.90
18297;DHT22;18066;52.106;5.534;2022-11-15T08:13:35;11.70;99.90
18297;DHT22;18066;52.106;5.534;2022-11-15T08:16:02;11.70;99.90
18297;DHT22;18066;52.106;5.534;2022-11-15T08:18:30;11.70;99.90
18297;DHT22;18066;52.106;5.534;2022-11-15T08:20:59;11.80;99.90
18297;DHT22;18066;52.106;5.534;2022-11-15T08:23:27;11.80;99.90
18297;DHT22;18066;52.106;5.534;2022-11-15T08:25:59;11.80;99.90
18297;DHT22;18066;52.106;5.534;2022-11-15T08:28:26;11.80;99.90
18297;DHT22;18066;52.106;5.534;2022-11-15T08:30:53;11.90;99.90
18297;DHT22;18066;52.106;5.534;2022-11-15T08:33:19;11.90;99.90
18297;DHT22;18066;52.106;5.534;2022-11-15T08:35:46;12.10;99.90
18297;DHT22;18066;52.106;5.534;2022-11-15T08:38:13;11.90;99.90
18297;DHT22;18066;52.106;5.534;2022-11-15T08:40:41;12.00;99.90
18297;DHT22;18066;52.106;5.534;2022-11-15T08:43:08;12.00;99.90
18297;DHT22;18066;52.106;5.534;2022-11-15T08:45:35;12.00;99.90
18297;DHT22;18066;52.106;5.534;2022-11-15T08:48:02;12.00;99.90
18297;DHT22;18066;52.106;5.534;2022-11-15T08:50:29;12.00;99.90
18297;DHT22;18066;52.106;5.534;2022-11-15T08:52:56;12.10;99.90
18297;DHT22;18066;52.106;5.534;2022-11-15T08:55:23;12.10;99.90
18297;DHT22;18066;52.106;5.534;2022-11-15T08:57:51;12.10;99.90
18297;DHT22;18066;52.106;5.534;2022-11-15T09:00:18;12.10;99.90
18297;DHT22;18066;52.106;5.534;2022-11-15T09:02:45;12.10;99.90
18297;DHT22;18066;52.106;5.534;2022-11-15T09:05:12;12.20;99.90
18297;DHT22;18066;52.106;5.534;2022-11-15T09:07:40;12.20;99.90
18297;DHT22;18066;52.106;5.534;2022-11-15T09:10:08;12.20;99.90
18297;DHT22;18066;52.106;5.534;2022-11-15T09:12:34;12.20;99.90
18297;DHT22;18066;52.106;5.534;2022-11-15T09:15:03;12.30;99.90
18297;DHT22;18066;52.106;5.534;2022-11-15T09:17:30;12.40;99.90
18297;DHT22;18066;52.106;5.534;2022-11-15T09:19:57;12.50;99.90
18297;DHT22;18066;52.106;5.534;2022-11-15T09:22:24;12.60;99.90
18297;DHT22;18066;52.106;5.534;2022-11-15T09:24:50;12.60;99.90
18297;DHT22;18066;52.106;5.534;2022-11-15T09:27:17;12.60;99.90
18297;DHT22;18066;52.106;5.534;2022-11-15T09:29:44;12.60;99.90
18297;DHT22;18066;52.106;5.534;2022-11-15T09:32:12;12.50;99.90
18297;DHT22;18066;52.106;5.534;2022-11-15T09:34:39;12.50;99.90
18297;DHT22;18066;52.106;5.534;2022-11-15T09:37:05;12.60;99.90
18297;DHT22;18066;52.106;5.534;2022-11-15T09:39:32;12.60;99.90
18297;DHT22;18066;52.106;5.534;2022-11-15T09:42:15;12.70;99.90
18297;DHT22;18066;52.106;5.534;2022-11-15T09:44:59;12.70;99.90
18297;DHT22;18066;52.106;5.534;2022-11-15T09:47:49;12.70;99.90
18297;DHT22;18066;52.106;5.534;2022-11-15T09:50:30;12.70;99.90
18297;DHT22;18066;52.106;5.534;2022-11-15T09:52:58;12.60;99.90
18297;DHT22;18066;52.106;5.534;2022-11-15T09:55:32;12.60;99.90
18297;DHT22;18066;52.106;5.534;2022-11-15T09:58:10;12.60;99.90
18297;DHT22;18066;52.106;5.534;2022-11-15T10:00:44;12.60;99.90
18297;DHT22;18066;52.106;5.534;2022-11-15T10:03:15;12.60;99.90
18297;DHT22;18066;52.106;5.534;2022-11-15T10:05:44;12.70;99.90
18297;DHT22;18066;52.106;5.534;2022-11-15T10:08:29;12.70;99.90
18297;DHT22;18066;52.106;5.534;2022-11-15T10:10:58;12.80;99.90
18297;DHT22;18066;52.106;5.534;2022-11-15T10:13:31;12.70;99.90
18297;DHT22;18066;52.106;5.534;2022-11-15T10:16:19;12.80;99.90
18297;DHT22;18066;52.106;5.534;2022-11-15T10:18:56;12.80;99.90
18297;DHT22;18066;52.106;5.534;2022-11-15T10:21:32;12.90;99.90
18297;DHT22;18066;52.106;5.534;2022-11-15T10:24:10;12.90;99.90
18297;DHT22;18066;52.106;5.534;2022-11-15T10:26:38;12.90;99.90
18297;DHT22;18066;52.106;5.534;2022-11-15T10:29:05;12.90;99.90
18297;DHT22;18066;52.106;5.534;2022-11-15T10:31:31;12.90;99.90
18297;DHT22;18066;52.106;5.534;2022-11-15T10:34:18;12.90;99.90
18297;DHT22;18066;52.106;5.534;2022-11-15T10:36:46;12.90;99.90
18297;DHT22;18066;52.106;5.534;2022-11-15T10:39:13;13.00;99.90
18297;DHT22;18066;52.106;5.534;2022-11-15T10:41:43;13.00;99.90
18297;DHT22;18066;52.106;5.534;2022-11-15T10:44:28;13.00;99.90
18297;DHT22;18066;52.106;5.534;2022-11-15T10:47:16;12.90;99.90
18297;DHT22;18066;52.106;5.534;2022-11-15T10:49:59;12.90;99.90
18297;DHT22;18066;52.106;5.534;2022-11-15T10:52:26;12.90;99.90
18297;DHT22;18066;52.106;5.534;2022-11-15T10:54:56;12.90;99.90
18297;DHT22;18066;52.106;5.534;2022-11-15T10:57:27;12.90;99.90
18297;DHT22;18066;52.106;5.534;2022-11-15T10:59:57;12.80;99.90
18297;DHT22;18066;52.106;5.534;2022-11-15T11:02:29;12.90;99.90
18297;DHT22;18066;52.106;5.534;2022-11-15T11:04:59;12.90;99.90
18297;DHT22;18066;52.106;5.534;2022-11-15T11:07:28;12.90;99.90
18297;DHT22;18066;52.106;5.534;2022-11-15T11:10:03;12.90;99.90
18297;DHT22;18066;52.106;5.534;2022-11-15T11:12:32;13.00;99.90
18297;DHT22;18066;52.106;5.534;2022-11-15T11:15:01;12.90;99.90
18297;DHT22;18066;52.106;5.534;2022-11-15T11:17:41;12.90;99.90
18297;DHT22;18066;52.106;5.534;2022-11-15T11:20:18;12.90;99.90
18297;DHT22;18066;52.106;5.534;2022-11-15T11:23:02;13.00;99.90
18297;DHT22;18066;52.106;5.534;2022-11-15T11:25:34;13.00;99.90
18297;DHT22;18066;52.106;5.534;2022-11-15T11:28:17;12.90;99.90
18297;DHT22;18066;52.106;5.534;2022-11-15T11:30:53;13.10;99.90
18297;DHT22;18066;52.106;5.534;2022-11-15T11:33:24;12.90;99.90
18297;DHT22;18066;52.106;5.534;2022-11-15T11:36:08;13.00;99.90
18297;DHT22;18066;52.106;5.534;2022-11-15T11:38:45;13.10;99.90
18297;DHT22;18066;52.106;5.534;2022-11-15T11:41:23;13.20;99.90
18297;DHT22;18066;52.106;5.534;2022-11-15T11:44:02;13.10;99.90
18297;DHT22;18066;52.106;5.534;2022-11-15T11:46:47;13.10;99.90
18297;DHT22;18066;52.106;5.534;2022-11-15T11:49:18;13.20;99.90
18297;DHT22;18066;52.106;5.534;2022-11-15T11:51:51;13.10;99.90
18297;DHT22;18066;52.106;5.534;2022-11-15T11:54:23;13.20;99.90
18297;DHT22;18066;52.106;5.534;2022-11-15T11:56:53;13.20;99.90
18297;DHT22;18066;52.106;5.534;2022-11-15T11:59:25;13.20;99.90
18297;DHT22;18066;52.106;5.534;2022-11-15T12:01:55;13.20;99.90
18297;DHT22;18066;52.106;5.534;2022-11-15T12:04:27;13.20;99.90
18297;DHT22;18066;52.106;5.534;2022-11-15T12:06:59;13.20;99.90
18297;DHT22;18066;52.106;5.534;2022-11-15T12:09:30;13.20;99.90
18297;DHT22;18066;52.106;5.534;2022-11-15T12:12:02;13.10;99.90
18297;DHT22;18066;52.106;5.534;2022-11-15T12:14:34;13.20;99.90
18297;DHT22;18066;52.106;5.534;2022-11-15T12:17:02;13.10;99.90
18297;DHT22;18066;52.106;5.534;2022-11-15T12:19:30;13.20;99.90
18297;DHT22;18066;52.106;5.534;2022-11-15T12:22:02;13.20;99.90
18297;DHT22;18066;52.106;5.534;2022-11-15T12:24:34;13.10;99.90
18297;DHT22;18066;52.106;5.534;2022-11-15T12:27:13;13.20;99.90
18297;DHT22;18066;52.106;5.534;2022-11-15T12:29:47;13.00;99.90
18297;DHT22;18066;52.106;5.534;2022-11-15T12:32:23;13.10;99.90
18297;DHT22;18066;52.106;5.534;2022-11-15T12:34:52;13.20;99.90
18297;DHT22;18066;52.106;5.534;2022-11-15T12:40:28;13.20;99.90
18297;DHT22;18066;52.106;5.534;2022-11-15T12:45:55;13.30;99.90
18297;DHT22;18066;52.106;5.534;2022-11-15T12:48:54;13.30;99.90
18297;DHT22;18066;52.106;5.534;2022-11-15T12:57:29;13.20;99.90
18297;DHT22;18066;52.106;5.534;2022-11-15T12:59:58;13.20;99.90
18297;DHT22;18066;52.106;5.534;2022-11-15T13:02:29;13.20;99.90
18297;DHT22;18066;52.106;5.534;2022-11-15T13:11:43;13.30;99.90
18297;DHT22;18066;52.106;5.534;2022-11-15T13:14:44;13.30;99.90
18297;DHT22;18066;52.106;5.534;2022-11-15T13:17:35;13.30;99.90
18297;DHT22;18066;52.106;5.534;2022-11-15T13:20:27;13.20;99.90
18297;DHT22;18066;52.106;5.534;2022-11-15T13:23:01;13.20;99.90
18297;DHT22;18066;52.106;5.534;2022-11-15T13:25:55;13.20;99.90
18297;DHT22;18066;52.106;5.534;2022-11-15T13:28:31;13.10;99.90
18297;DHT22;18066;52.106;5.534;2022-11-15T13:31:02;13.20;99.90
18297;DHT22;18066;52.106;5.534;2022-11-15T13:33:31;13.10;99.90
18297;DHT22;18066;52.106;5.534;2022-11-15T13:36:01;13.00;99.90
18297;DHT22;18066;52.106;5.534;2022-11-15T13:38:31;13.00;99.90
18297;DHT22;18066;52.106;5.534;2022-11-15T13:40:59;12.90;99.90
18297;DHT22;18066;52.106;5.534;2022-11-15T13:43:31;12.90;99.90
18297;DHT22;18066;52.106;5.534;2022-11-15T13:46:07;12.80;99.90
18297;DHT22;18066;52.106;5.534;2022-11-15T13:48:36;12.80;99.90
18297;DHT22;18066;52.106;5.534;2022-11-15T13:51:05;12.80;99.90
18297;DHT22;18066;52.106;5.534;2022-11-15T13:53:33;12.70;99.90
18297;DHT22;18066;52.106;5.534;2022-11-15T13:56:03;12.70;99.90
18297;DHT22;18066;52.106;5.534;2022-11-15T13:58:30;12.80;99.90
18297;DHT22;18066;52.106;5.534;2022-11-15T14:01:00;12.70;99.90
18297;DHT22;18066;52.106;5.534;2022-11-15T14:03:30;12.80;99.90
18297;DHT22;18066;52.106;5.534;2022-11-15T14:06:07;12.80;99.90
18297;DHT22;18066;52.106;5.534;2022-11-15T14:08:37;12.80;99.90
18297;DHT22;18066;52.106;5.534;2022-11-15T14:11:09;12.80;99.90
18297;DHT22;18066;52.106;5.534;2022-11-15T14:13:39;12.80;99.90
18297;DHT22;18066;52.106;5.534;2022-11-15T14:16:13;12.80;99.90
18297;DHT22;18066;52.106;5.534;2022-11-15T14:18:45;12.80;99.90
18297;DHT22;18066;52.106;5.534;2022-11-15T14:21:12;12.80;99.90
18297;DHT22;18066;52.106;5.534;2022-11-15T14:23:39;12.80;99.90
18297;DHT22;18066;52.106;5.534;2022-11-15T14:26:10;12.70;99.90
18297;DHT22;18066;52.106;5.534;2022-11-15T14:28:37;12.70;99.90
18297;DHT22;18066;52.106;5.534;2022-11-15T14:31:10;12.70;99.90
18297;DHT22;18066;52.106;5.534;2022-11-15T14:33:38;12.70;99.90
18297;DHT22;18066;52.106;5.534;2022-11-15T14:36:11;12.60;99.90
18297;DHT22;18066;52.106;5.534;2022-11-15T14:38:39;12.70;99.90
18297;DHT22;18066;52.106;5.534;2022-11-15T14:41:08;12.80;99.90
18297;DHT22;18066;52.106;5.534;2022-11-15T14:43:36;12.70;99.90
18297;DHT22;18066;52.106;5.534;2022-11-15T14:46:03;12.70;99.90
18297;DHT22;18066;52.106;5.534;2022-11-15T14:48:30;12.70;99.90
18297;DHT22;18066;52.106;5.534;2022-11-15T14:50:57;12.60;99.90
18297;DHT22;18066;52.106;5.534;2022-11-15T14:53:25;12.70;99.90
18297;DHT22;18066;52.106;5.534;2022-11-15T14:55:53;12.80;99.90
18297;DHT22;18066;52.106;5.534;2022-11-15T14:58:19;12.80;99.90
18297;DHT22;18066;52.106;5.534;2022-11-15T15:00:46;12.80;99.90
18297;DHT22;18066;52.106;5.534;2022-11-15T15:03:13;12.70;99.90
18297;DHT22;18066;52.106;5.534;2022-11-15T15:05:41;12.80;99.90
18297;DHT22;18066;52.106;5.534;2022-11-15T15:08:09;12.70;99.90
18297;DHT22;18066;52.106;5.534;2022-11-15T15:10:38;12.70;99.90
18297;DHT22;18066;52.106;5.534;2022-11-15T15:13:06;12.70;99.90
18297;DHT22;18066;52.106;5.534;2022-11-15T15:15:36;12.70;99.90
18297;DHT22;18066;52.106;5.534;2022-11-15T15:18:04;12.70;99.90
18297;DHT22;18066;52.106;5.534;2022-11-15T15:20:34;12.70;99.90
18297;DHT22;18066;52.106;5.534;2022-11-15T15:23:01;12.70;99.90
18297;DHT22;18066;52.106;5.534;2022-11-15T15:25:31;12.60;99.90
18297;DHT22;18066;52.106;5.534;2022-11-15T15:27:59;12.60;99.90
18297;DHT22;18066;52.106;5.534;2022-11-15T15:30:28;12.60;99.90
18297;DHT22;18066;52.106;5.534;2022-11-15T15:32:55;12.60;99.90
18297;DHT22;18066;52.106;5.534;2022-11-15T15:35:29;12.60;99.90
18297;DHT22;18066;52.106;5.534;2022-11-15T15:37:56;12.60;99.90
18297;DHT22;18066;52.106;5.534;2022-11-15T15:40:23;12.50;99.90
18297;DHT22;18066;52.106;5.534;2022-11-15T15:42:50;12.50;99.90
18297;DHT22;18066;52.106;5.534;2022-11-15T15:45:19;12.50;99.90
18297;DHT22;18066;52.106;5.534;2022-11-15T15:47:46;12.50;99.90
18297;DHT22;18066;52.106;5.534;2022-11-15T15:50:21;12.50;99.90
18297;DHT22;18066;52.106;5.534;2022-11-15T15:52:49;12.50;99.90
18297;DHT22;18066;52.106;5.534;2022-11-15T15:55:15;12.50;99.90
18297;DHT22;18066;52.106;5.534;2022-11-15T15:57:42;12.50;99.90
18297;DHT22;18066;52.106;5.534;2022-11-15T16:00:10;12.50;99.90
18297;DHT22;18066;52.106;5.534;2022-11-15T16:02:38;12.50;99.90
18297;DHT22;18066;52.106;5.534;2022-11-15T16:05:06;12.50;99.90
18297;DHT22;18066;52.106;5.534;2022-11-15T16:07:33;12.50;99.90
18297;DHT22;18066;52.106;5.534;2022-11-15T16:10:00;12.50;99.90
18297;DHT22;18066;52.106;5.534;2022-11-15T16:12:27;12.50;99.90
18297;DHT22;18066;52.106;5.534;2022-11-15T16:14:54;12.50;99.90
18297;DHT22;18066;52.106;5.534;2022-11-15T16:17:23;12.50;99.90